Stations météo

réclame
Mon MeteoGroup
Diepenbeek, Belgique (6477): Température de l'air & dewpoint: 18.04.2018 10:00:00 - 24.04.2018 10:00:00 (CEST)Diepenbeek, Belgique (6477): Vitesse du vent & gusts: 18.04.2018 10:00:00 - 24.04.2018 10:00:00 (CEST)Diepenbeek, Belgique (6477): Direction du vent: 18.04.2018 10:00:00 - 24.04.2018 10:00:00 (CEST)Diepenbeek, Belgique (6477): reduced air pressure: 18.04.2018 10:00:00 - 24.04.2018 10:00:00 (CEST)Diepenbeek, Belgique (6477): Ensoleillement: 18.04.2018 10:00:00 - 24.04.2018 10:00:00 (CEST)Diepenbeek, Belgique (6477): Quantités de précipitations: 18.04.2018 10:00:00 - 24.04.2018 10:00:00 (CEST)
Date & Time tt [°C] td [°C] ff [km/h] ff [knt] fx [km/h] fx [knt] dd ppp [hPa] sd [min] rr [mm]
24.04.2018 10:00:00 - - - - - - - - - -
24.04.2018 09:00:00 10,0 6,6 16 8 27 15 WSW 1018,3 0 0,0
24.04.2018 08:00:00 9,4 6,2 18 10 25 13 SW 1018,2 0 0,0
24.04.2018 07:00:00 8,4 5,7 15 8 24 13 SW 1017,9 0 0,0
24.04.2018 06:00:00 7,8 5,5 14 7 25 14 SW 1017,8 0 0,0
24.04.2018 05:00:00 8,0 5,5 15 8 24 13 SW 1018,1 0 0,0
24.04.2018 04:00:00 8,2 5,5 13 7 22 12 SSW 1018,1 0 0,0
24.04.2018 03:00:00 8,2 5,5 14 8 21 12 SW 1018,7 0 0,0
24.04.2018 02:00:00 8,3 5,5 11 6 23 12 SW 1019,0 0 0,0
24.04.2018 01:00:00 9,9 5,6 14 8 24 13 WSW 1019,0 0 0,0
24.04.2018 00:00:00 10,9 6,2 10 5 27 15 WSW 1018,6 0 0,0
23.04.2018 23:00:00 12,1 6,2 10 5 21 11 WSW 1018,2 0 0,0
23.04.2018 22:00:00 13,1 6,4 10 5 18 10 W 1018,0 0 0,0
23.04.2018 21:00:00 14,7 6,2 10 6 23 13 W 1017,3 7 0,0
23.04.2018 20:00:00 15,8 6,5 11 6 21 12 W 1017,1 21 0,0
23.04.2018 19:00:00 16,1 6,7 14 7 29 16 W 1017,2 49 0,0
23.04.2018 18:00:00 17,9 7,5 19 10 33 18 W 1017,1 60 0,0
23.04.2018 17:00:00 18,2 7,7 16 9 29 16 W 1016,8 53 0,0
23.04.2018 16:00:00 17,8 7,5 16 9 32 18 W 1016,9 58 0,0
23.04.2018 15:00:00 17,6 8,1 19 10 34 19 WSW 1017,2 59 0,0
23.04.2018 14:00:00 17,0 7,4 18 10 40 21 W 1017,3 59 0,0
23.04.2018 13:00:00 16,8 8,7 16 9 30 16 W 1017,2 49 0,0
23.04.2018 12:00:00 15,7 9,0 16 9 29 16 WSW 1017,0 35 0,0
23.04.2018 11:00:00 15,8 10,5 16 9 27 15 SW 1016,6 59 0,0
23.04.2018 10:00:00 14,5 8,6 13 7 21 12 W 1016,2 56 0,0
23.04.2018 09:00:00 13,6 8,4 11 6 20 11 WSW 1015,8 30 0,0
23.04.2018 08:00:00 13,5 8,0 11 6 17 9 W 1015,4 0 0,0
23.04.2018 07:00:00 13,9 8,3 9 5 24 13 WSW 1014,5 0 0,0
23.04.2018 06:00:00 14,2 9,4 11 6 24 13 WSW 1014,0 0 0,0
23.04.2018 05:00:00 15,4 10,9 14 8 24 13 WSW 1013,9 0 0,0
23.04.2018 04:00:00 15,9 11,5 12 6 18 10 SW 1013,5 0 0,0
23.04.2018 03:00:00 16,5 11,1 8 5 20 11 WSW 1012,9 0 0,0
23.04.2018 02:00:00 16,9 11,7 11 6 17 9 SW 1012,8 0 0,0
23.04.2018 01:00:00 17,5 11,6 5 3 11 6 WSW 1012,6 0 0,0
23.04.2018 00:00:00 16,4 11,3 5 3 13 7 SW 1012,2 0 0,0
22.04.2018 23:00:00 16,2 11,2 5 3 11 6 SSW 1011,7 0 0,0
22.04.2018 22:00:00 17,3 11,5 7 4 19 11 SSW 1011,3 0 0,0
22.04.2018 21:00:00 20,4 12,1 10 5 27 15 SW 1010,7 17 0,0
22.04.2018 20:00:00 22,9 12,1 18 10 35 19 WSW 1010,1 47 0,0
22.04.2018 19:00:00 24,1 11,0 22 12 46 25 WSW 1009,9 60 0,0
22.04.2018 18:00:00 24,9 12,2 26 14 46 25 SW 1009,6 58 0,0
22.04.2018 17:00:00 25,6 13,6 27 14 43 23 SW 1009,5 28 0,0
22.04.2018 16:00:00 26,1 14,4 15 8 30 16 WSW 1009,9 60 0,0
22.04.2018 15:00:00 24,5 16,0 8 4 16 8 S 1010,7 56 0,0
22.04.2018 14:00:00 22,4 16,6 4 2 45 24 SSE 1011,5 35 1,4
22.04.2018 13:00:00 22,3 14,5 13 7 20 11 S 1012,2 44 0,0
22.04.2018 12:00:00 20,1 13,6 7 4 19 10 E 1012,6 0 0,0
22.04.2018 11:00:00 19,7 13,6 13 7 21 11 SW 1013,6 57 0,0
22.04.2018 10:00:00 17,6 13,0 5 3 7 4 SSW 1013,6 60 0,0
22.04.2018 09:00:00 14,6 12,5 4 2 5 3 ESE 1013,9 60 0,0
22.04.2018 08:00:00 10,2 10,0 4 2 4 2 WNW 1014,2 42 0,0
22.04.2018 07:00:00 9,0 8,9 0 0 4 2 N 1014,1 0 0,0
22.04.2018 06:00:00 9,2 8,9 5 3 6 3 SE 1014,5 0 0,0
22.04.2018 05:00:00 9,6 9,2 0 0 1 1 N 1015,1 0 0,0
22.04.2018 04:00:00 10,5 9,7 0 0 - - N 1015,3 0 0,0
22.04.2018 03:00:00 11,4 10,0 4 2 6 3 E 1015,6 0 0,0
22.04.2018 02:00:00 12,5 9,6 4 2 7 4 ENE 1016,3 0 0,0
22.04.2018 01:00:00 13,9 10,2 4 2 10 6 NE 1017,2 0 0,0
22.04.2018 00:00:00 17,6 9,7 8 5 14 8 ENE 1017,7 0 0,0
21.04.2018 23:00:00 18,2 10,5 7 4 14 7 NE 1018,2 0 0,0
21.04.2018 22:00:00 19,4 10,1 7 4 11 6 ENE 1018,3 0 0,0
21.04.2018 21:00:00 20,8 9,4 8 5 16 9 ENE 1018,3 11 0,0
21.04.2018 20:00:00 21,8 10,4 11 6 20 11 ENE 1018,1 60 0,0
21.04.2018 19:00:00 23,1 9,8 14 7 20 11 NE 1018,5 60 0,0
21.04.2018 18:00:00 23,7 10,2 13 7 20 11 ENE 1018,9 60 0,0
21.04.2018 17:00:00 24,1 11,4 10 6 22 12 NE 1019,5 60 0,0
21.04.2018 16:00:00 23,8 11,3 12 7 23 12 NNE 1020,2 60 0,0
21.04.2018 15:00:00 23,2 11,6 9 5 19 10 ENE 1020,7 60 0,0
21.04.2018 14:00:00 22,6 12,8 11 6 18 10 NNE 1021,4 60 0,0
21.04.2018 13:00:00 21,3 12,3 10 5 17 9 N 1022,0 60 0,0
21.04.2018 12:00:00 19,9 12,6 5 3 14 7 NNW 1022,7 60 0,0
21.04.2018 11:00:00 17,7 12,0 5 3 9 5 NNE 1023,0 60 0,0
21.04.2018 10:00:00 15,2 11,7 4 2 9 5 N 1022,9 60 0,0
21.04.2018 09:00:00 12,5 11,2 5 3 9 5 N 1023,2 60 0,0
21.04.2018 08:00:00 9,9 9,9 4 2 6 3 W 1023,3 0 0,0
21.04.2018 07:00:00 9,1 9,0 4 2 6 4 WNW 1022,7 0 0,0
21.04.2018 06:00:00 9,9 9,9 4 2 - - NW 1022,2 0 0,0
21.04.2018 05:00:00 10,2 9,8 4 2 6 3 SW 1022,0 0 0,0
21.04.2018 04:00:00 11,7 10,7 5 3 6 4 NNW 1022,0 0 0,0
21.04.2018 03:00:00 12,1 10,7 4 2 5 3 W 1022,3 0 0,0
21.04.2018 02:00:00 12,6 10,8 4 2 8 4 NW 1022,6 0 0,0
21.04.2018 01:00:00 13,3 11,0 0 0 4 2 N 1022,6 0 0,0
21.04.2018 00:00:00 14,7 10,2 4 2 4 2 ESE 1022,5 0 0,0
20.04.2018 23:00:00 15,9 9,6 4 2 8 4 NW 1022,3 0 0,0
20.04.2018 22:00:00 20,6 9,1 5 3 14 8 N 1022,1 0 0,0
20.04.2018 21:00:00 22,5 10,7 6 3 22 12 N 1021,6 13 0,0
20.04.2018 20:00:00 24,4 12,4 11 6 22 12 NNW 1021,1 60 0,0
20.04.2018 19:00:00 26,0 11,1 9 5 20 11 W 1021,2 60 0,0
20.04.2018 18:00:00 26,6 11,2 11 6 23 13 W 1021,4 60 0,0
20.04.2018 17:00:00 27,1 12,5 13 7 21 12 W 1021,6 60 0,0
20.04.2018 16:00:00 27,1 12,9 8 4 22 12 W 1022,1 60 0,0
20.04.2018 15:00:00 26,7 13,1 12 7 24 13 WSW 1022,6 60 0,0
20.04.2018 14:00:00 26,5 13,6 11 6 20 11 SW 1023,0 60 0,0
20.04.2018 13:00:00 26,1 13,4 7 4 14 7 WSW 1023,5 60 0,0
20.04.2018 12:00:00 24,5 14,0 7 4 12 7 SSW 1023,7 60 0,0
20.04.2018 11:00:00 22,2 13,5 6 4 9 5 SSW 1023,9 60 0,0
20.04.2018 10:00:00 19,6 12,9 4 2 8 4 SSW 1023,6 60 0,0
20.04.2018 09:00:00 16,2 11,8 5 3 6 3 ESE 1023,9 60 0,0
20.04.2018 08:00:00 10,4 9,6 0 0 4 2 N 1024,1 46 0,0
20.04.2018 07:00:00 8,9 8,5 5 3 5 3 ESE 1024,0 0 0,0
20.04.2018 06:00:00 9,3 8,9 0 0 1 1 N 1024,0 0 0,0
20.04.2018 05:00:00 9,8 9,0 0 0 3 2 N 1024,3 0 0,0
20.04.2018 04:00:00 10,3 9,7 0 0 5 3 N 1024,4 0 0,0
20.04.2018 03:00:00 11,4 10,2 4 2 4 2 SE 1024,3 0 0,0
20.04.2018 02:00:00 11,9 10,3 0 0 4 2 N 1024,5 0 0,0
20.04.2018 01:00:00 12,9 10,5 0 0 5 3 N 1024,5 0 0,0
20.04.2018 00:00:00 14,3 10,4 4 2 7 4 E 1024,6 0 0,0
19.04.2018 23:00:00 15,0 10,4 4 2 9 5 SSE 1024,6 0 0,0
19.04.2018 22:00:00 17,5 10,0 4 2 5 3 ESE 1024,3 0 0,0
19.04.2018 21:00:00 21,5 9,3 4 2 9 5 ESE 1023,9 24 0,0
19.04.2018 20:00:00 24,7 9,4 7 4 17 9 SSW 1023,6 60 0,0
19.04.2018 19:00:00 26,6 10,5 10 5 17 9 WSW 1023,6 60 0,0
19.04.2018 18:00:00 28,3 10,5 6 3 29 15 SE 1023,6 60 0,0
19.04.2018 17:00:00 28,3 8,2 16 9 32 17 ESE 1023,8 60 0,0
19.04.2018 16:00:00 28,3 7,9 18 10 34 18 SSE 1024,4 60 0,0
19.04.2018 15:00:00 27,7 9,3 17 9 38 21 SSE 1025,1 60 0,0
19.04.2018 14:00:00 27,3 8,5 22 12 33 18 SE 1025,5 60 0,0
19.04.2018 13:00:00 26,3 7,9 22 12 33 18 SE 1026,0 60 0,0
19.04.2018 12:00:00 25,0 9,0 18 10 27 14 SSE 1026,5 60 0,0
19.04.2018 11:00:00 23,0 10,7 11 6 - - SE 1027,0 - -
19.04.2018 10:00:00 20,2 10,2 10 5 16 8 ESE 1027,1 60 0,0
19.04.2018 09:00:00 16,0 13,5 4 2 7 4 ESE 1027,4 - -
19.04.2018 08:00:00 9,2 8,5 4 2 7 4 E 1027,5 57 0,0
19.04.2018 07:00:00 7,3 7,1 4 2 4 2 SSE 1027,4 0 0,0
19.04.2018 06:00:00 8,0 7,5 4 2 6 3 SE 1027,5 0 0,0
19.04.2018 05:00:00 7,9 7,3 4 2 5 3 E 1028,0 0 0,0
19.04.2018 04:00:00 8,4 7,6 4 2 6 4 SSE 1028,2 0 0,0
19.04.2018 03:00:00 9,6 8,4 0 0 3 2 N 1028,0 0 0,0
19.04.2018 02:00:00 10,0 7,5 0 0 4 2 N 1028,2 0 0,0
19.04.2018 01:00:00 13,0 9,0 4 2 4 2 ENE 1028,4 0 0,0
19.04.2018 00:00:00 15,7 8,4 4 2 10 5 ESE 1028,6 0 0,0
18.04.2018 23:00:00 19,3 8,3 7 4 - - E 1028,4 - -
18.04.2018 22:00:00 20,2 8,3 11 6 14 8 E 1028,4 - -
18.04.2018 21:00:00 21,9 7,6 10 5 20 11 ENE 1027,9 9 0,0
18.04.2018 20:00:00 23,6 7,1 11 6 21 11 ENE 1027,7 60 0,0
18.04.2018 19:00:00 24,5 7,6 13 7 24 13 ENE 1028,2 60 0,0
18.04.2018 18:00:00 25,0 5,5 15 8 24 13 E 1028,4 60 0,0
18.04.2018 17:00:00 24,9 8,0 14 8 25 13 E 1028,8 60 0,0
18.04.2018 16:00:00 24,9 6,6 11 6 19 11 SE 1029,5 60 0,0
18.04.2018 15:00:00 24,2 8,6 10 5 20 11 SE 1030,1 60 0,0
18.04.2018 14:00:00 23,5 11,0 11 6 21 11 ESE 1030,7 60 0,0
18.04.2018 13:00:00 22,2 9,2 8 4 19 11 E 1031,1 60 0,0
18.04.2018 12:00:00 21,1 9,5 13 7 19 11 SE 1031,6 60 0,0
18.04.2018 11:00:00 19,2 10,3 7 4 10 5 SSE 1031,8 60 0,0
18.04.2018 10:00:00 15,6 9,6 4 2 5 3 W 1031,8 60 0,0

tt = Température de l'air
td = dewpoint
ff = Vitesse du vent
fx = gusts
dd = Direction du vent
ppp = reduced air pressure
sd = Ensoleillement
rr = Quantités de précipitations

stations d'obs. à proximité